Time;durP1;ratioP1;P1;durP2;ratioP2;P2;SDS_P1;SDS_P2;PMS_P1;PMS_P2;Temp;Humidity;BMP_temperature;BMP_pressure;BME280_temperature;BME280_humidity;BME280_pressure;Samples;Min_cycle;Max_cycle;Signal;HPM_P1;HPM_P2
2022/04/18 00:00:19;;;;;;;;;;;;;;;29.41;23.90;100306.31;5020181;28;850;-41
2022/04/18 00:02:44;;;;;;;;;;;;;;;29.11;23.51;100304.00;5018144;28;1894;-43
2022/04/18 00:05:10;;;;;;;;;;;;;;;28.90;23.63;100309.38;5018396;28;758;-42
2022/04/18 00:07:35;;;;;;;;;;;;;;;28.87;24.04;100303.53;5018470;28;834;-43
2022/04/18 00:10:00;;;;;;;;;;;;;;;29.08;24.42;100307.94;5018201;28;818;-41
2022/04/18 00:12:26;;;;;;;;;;;;;;;29.08;24.22;100306.09;5036829;28;939;-40
2022/04/18 00:14:51;;;;;;;;;;;;;;;29.30;24.17;100295.06;5018760;28;838;-43
2022/04/18 00:17:16;;;;;;;;;;;;;;;29.24;23.23;100295.06;5018579;28;958;-43
2022/04/18 00:19:41;;;;;;;;;;;;;;;28.87;23.74;100292.69;5017935;28;889;-41
2022/04/18 00:22:07;;;;;;;;;;;;;;;28.84;24.09;100291.25;5018429;28;1898;-42
2022/04/18 00:24:32;;;;;;;;;;;;;;;29.18;24.36;100292.13;5018089;28;933;-39
2022/04/18 00:26:58;;;;;;;;;;;;;;;29.08;24.33;100289.00;5024440;28;1021;-41
2022/04/18 00:29:23;;;;;;;;;;;;;;;29.27;24.06;100290.06;5017732;28;842;-43
2022/04/18 00:31:48;;;;;;;;;;;;;;;29.24;23.47;100290.47;5023378;28;923;-41
2022/04/18 00:34:14;;;;;;;;;;;;;;;29.43;23.48;100286.06;5033702;28;863;-43
2022/04/18 00:36:40;;;;;;;;;;;;;;;29.48;23.79;100277.31;5037017;28;821;-41
2022/04/18 00:39:05;;;;;;;;;;;;;;;29.26;24.23;100265.88;5026815;28;1047;-43
2022/04/18 00:41:30;;;;;;;;;;;;;;;29.29;24.19;100271.72;5017801;28;1957;-44
2022/04/18 00:43:56;;;;;;;;;;;;;;;29.36;23.81;100274.44;5017954;28;770;-43
2022/04/18 00:46:21;;;;;;;;;;;;;;;29.01;23.88;100261.09;5020992;28;863;-42
2022/04/18 00:48:46;;;;;;;;;;;;;;;28.90;24.23;100265.22;5017606;28;845;-43
2022/04/18 00:51:21;;;;;;;;;;;;;;;29.24;24.79;100257.97;5022778;28;794;-41
2022/04/18 00:53:46;;;;;;;;;;;;;;;28.98;25.00;100256.91;5019628;28;810;-43
2022/04/18 00:56:13;;;;;;;;;;;;;;;29.07;25.22;100252.13;5036530;28;873;-41
2022/04/18 00:58:39;;;;;;;;;;;;;;;29.53;24.47;100250.41;5036353;28;802;-40
2022/04/18 01:01:04;;;;;;;;;;;;;;;29.06;24.06;100255.91;5027148;28;1886;-43
2022/04/18 01:03:30;;;;;;;;;;;;;;;29.01;24.39;100251.09;5017383;28;849;-43
2022/04/18 01:05:57;;;;;;;;;;;;;;;29.21;25.05;100247.56;5017238;28;814;-43
2022/04/18 01:08:24;;;;;;;;;;;;;;;29.23;25.13;100239.22;5016977;28;868;-43
2022/04/18 01:10:50;;;;;;;;;;;;;;;29.37;24.97;100235.44;5017090;28;775;-43
2022/04/18 01:13:15;;;;;;;;;;;;;;;29.28;23.87;100244.84;5017371;28;866;-43
2022/04/18 01:15:40;;;;;;;;;;;;;;;29.11;24.02;100229.03;5023215;28;798;-42
2022/04/18 01:18:06;;;;;;;;;;;;;;;29.02;24.58;100233.81;5021313;28;896;-43
2022/04/18 01:20:34;;;;;;;;;;;;;;;29.22;24.92;100235.66;5017021;28;802;-42
2022/04/18 01:22:59;;;;;;;;;;;;;;;29.16;25.18;100240.03;5017324;28;1979;-41
2022/04/18 01:30:53;;;;;;;;;;;;;;;29.25;24.24;100245.25;5023843;28;845;-42
2022/04/18 01:33:18;;;;;;;;;;;;;;;29.27;25.00;100238.59;5017027;28;811;-41
2022/04/18 01:35:43;;;;;;;;;;;;;;;29.24;25.20;100251.72;5017325;28;914;-41
2022/04/18 01:38:09;;;;;;;;;;;;;;;29.54;24.58;100232.28;5016985;28;1184;-43
2022/04/18 01:40:34;;;;;;;;;;;;;;;29.28;23.82;100234.00;5016653;28;797;-41
2022/04/18 01:42:59;;;;;;;;;;;;;;;29.02;24.23;100225.69;5019069;28;1971;-43
2022/04/18 01:45:24;;;;;;;;;;;;;;;28.96;24.36;100224.59;5019381;28;949;-43
2022/04/18 01:47:50;;;;;;;;;;;;;;;29.08;25.26;100227.56;5016929;28;822;-41
2022/04/18 01:50:15;;;;;;;;;;;;;;;28.88;25.34;100232.94;5016462;28;1157;-42
2022/04/18 01:52:40;;;;;;;;;;;;;;;29.08;25.12;100224.84;5016837;28;783;-42
2022/04/18 01:55:06;;;;;;;;;;;;;;;29.46;24.52;100214.38;5022980;28;742;-42
2022/04/18 01:57:31;;;;;;;;;;;;;;;29.16;24.05;100210.25;5016939;28;962;-42
2022/04/18 01:59:57;;;;;;;;;;;;;;;29.02;24.38;100212.16;5017339;28;935;-41
2022/04/18 02:02:22;;;;;;;;;;;;;;;29.36;24.64;100211.28;5029263;28;1977;-42
2022/04/18 02:04:47;;;;;;;;;;;;;;;29.37;24.49;100208.34;5035645;28;880;-41
2022/04/18 02:07:13;;;;;;;;;;;;;;;29.65;23.98;100218.09;5035870;28;750;-42
2022/04/18 02:09:38;;;;;;;;;;;;;;;29.33;23.97;100204.38;5017323;28;822;-42
2022/04/18 02:12:04;;;;;;;;;;;;;;;28.98;24.44;100204.66;5016228;28;825;-41
2022/04/18 02:14:30;;;;;;;;;;;;;;;29.43;24.90;100195.81;5016693;28;787;-41
2022/04/18 02:16:56;;;;;;;;;;;;;;;29.06;25.46;100186.31;5021380;28;845;-41
2022/04/18 02:19:22;;;;;;;;;;;;;;;29.01;25.24;100199.63;5020422;28;798;-43
2022/04/18 02:21:47;;;;;;;;;;;;;;;29.48;24.68;100195.19;5024774;28;1961;-43
2022/04/18 02:24:14;;;;;;;;;;;;;;;29.21;23.67;100196.91;5016274;28;850;-41
2022/04/18 02:26:39;;;;;;;;;;;;;;;28.98;24.11;100193.84;5022268;28;1009;-41
2022/04/18 02:29:04;;;;;;;;;;;;;;;29.20;25.03;100189.00;5016824;28;734;-41
2022/04/18 02:31:30;;;;;;;;;;;;;;;29.15;25.08;100191.50;5020568;28;893;-43
2022/04/18 02:33:55;;;;;;;;;;;;;;;29.25;24.78;100193.78;5017591;28;918;-41
2022/04/18 02:36:20;;;;;;;;;;;;;;;29.64;24.46;100180.38;5016268;28;849;-43
2022/04/18 02:38:46;;;;;;;;;;;;;;;29.29;23.69;100182.34;5016453;28;1065;-43
2022/04/18 02:41:11;;;;;;;;;;;;;;;29.17;23.77;100184.84;5016433;28;1906;-43
2022/04/18 02:43:36;;;;;;;;;;;;;;;29.21;24.85;100182.56;5016283;28;853;-43
2022/04/18 02:46:01;;;;;;;;;;;;;;;28.91;25.46;100186.50;5021086;28;1218;-41
2022/04/18 02:48:27;;;;;;;;;;;;;;;28.96;25.39;100184.00;5016351;28;766;-41
2022/04/18 02:50:52;;;;;;;;;;;;;;;29.43;24.69;100179.56;5016082;28;1089;-41
2022/04/18 02:53:17;;;;;;;;;;;;;;;29.21;23.70;100180.66;5017315;28;775;-43
2022/04/18 02:55:43;;;;;;;;;;;;;;;28.70;23.57;100177.56;5019213;28;858;-41
2022/04/18 02:58:08;;;;;;;;;;;;;;;28.72;24.25;100182.75;5025225;28;980;-39
2022/04/18 03:00:33;;;;;;;;;;;;;;;28.90;23.26;100179.41;5019947;28;860;-39
2022/04/18 03:02:58;;;;;;;;;;;;;;;29.04;22.83;100172.16;5037327;28;1969;-39
2022/04/18 03:05:24;;;;;;;;;;;;;;;29.16;22.29;100172.31;5021193;28;857;-37
2022/04/18 03:07:49;;;;;;;;;;;;;;;28.97;22.60;100171.31;5019414;28;850;-37
2022/04/18 03:10:14;;;;;;;;;;;;;;;28.62;22.53;100164.22;5032480;28;769;-40
2022/04/18 03:12:40;;;;;;;;;;;;;;;28.46;22.01;100165.47;5023415;28;759;-37
2022/04/18 03:15:05;;;;;;;;;;;;;;;26.98;20.17;100164.56;5021258;28;1085;-40
2022/04/18 03:17:30;;;;;;;;;;;;;;;26.00;20.85;100165.91;5022243;28;842;-39
2022/04/18 03:19:56;;;;;;;;;;;;;;;27.10;20.63;100159.47;5020031;28;763;-38
2022/04/18 03:22:21;;;;;;;;;;;;;;;28.18;20.43;100155.59;5018883;28;1961;-38
2022/04/18 03:24:46;;;;;;;;;;;;;;;28.24;20.21;100161.03;5025362;28;873;-39
2022/04/18 03:27:12;;;;;;;;;;;;;;;28.19;20.43;100168.09;5024341;28;994;-37
2022/04/18 03:29:37;;;;;;;;;;;;;;;27.92;20.58;100162.59;5018950;28;850;-38
2022/04/18 03:32:02;;;;;;;;;;;;;;;27.80;20.89;100171.31;5028597;28;1009;-39
2022/04/18 03:34:28;;;;;;;;;;;;;;;27.92;20.82;100182.38;5033505;28;1262;-36
2022/04/18 03:39:53;;;;;;;;;;;;;;;27.84;20.77;100190.66;5018137;28;1239;-37
2022/04/18 03:42:19;;;;;;;;;;;;;;;27.90;20.66;100189.84;5018614;28;1902;-38
2022/04/18 03:44:46;;;;;;;;;;;;;;;28.05;20.37;100196.97;5018861;28;819;-38
2022/04/18 03:47:12;;;;;;;;;;;;;;;28.06;20.68;100188.63;5020068;28;898;-38
2022/04/18 03:49:37;;;;;;;;;;;;;;;28.05;20.24;100195.09;5021591;28;1522;-35
2022/04/18 03:52:03;;;;;;;;;;;;;;;27.91;20.50;100183.38;5024142;28;1370;-35
2022/04/18 03:54:28;;;;;;;;;;;;;;;28.20;20.33;100181.41;5025564;28;815;-34
2022/04/18 03:56:54;;;;;;;;;;;;;;;28.45;20.59;100172.75;5025959;28;1335;-36
2022/04/18 03:59:19;;;;;;;;;;;;;;;28.64;20.65;100181.09;5026689;28;1346;-35
2022/04/18 04:01:44;;;;;;;;;;;;;;;28.82;20.38;100179.63;5032695;28;1910;-38
2022/04/18 04:04:09;;;;;;;;;;;;;;;28.98;20.21;100183.81;5020710;28;787;-40
2022/04/18 04:06:35;;;;;;;;;;;;;;;29.27;20.04;100172.72;5018071;28;921;-41
2022/04/18 04:09:00;;;;;;;;;;;;;;;28.92;19.02;100181.91;5017361;28;865;-36
2022/04/18 04:11:25;;;;;;;;;;;;;;;28.68;19.18;100181.50;5017442;28;782;-39
2022/04/18 04:13:51;;;;;;;;;;;;;;;29.02;20.11;100187.78;5031562;28;802;-38
2022/04/18 04:16:16;;;;;;;;;;;;;;;29.25;19.75;100172.94;5029915;28;927;-38
2022/04/18 04:18:41;;;;;;;;;;;;;;;28.86;18.90;100183.59;5018383;28;1033;-44
2022/04/18 04:21:07;;;;;;;;;;;;;;;25.98;20.20;100179.56;5017776;28;1997;-39
2022/04/18 04:23:32;;;;;;;;;;;;;;;25.31;20.51;100172.25;5017801;28;830;-39
2022/04/18 04:25:57;;;;;;;;;;;;;;;25.13;20.96;100172.59;5022019;28;1021;-35
2022/04/18 04:28:22;;;;;;;;;;;;;;;25.10;21.18;100174.81;5021727;28;1057;-39
2022/04/18 04:30:48;;;;;;;;;;;;;;;24.96;21.15;100171.91;5019918;28;845;-39
2022/04/18 04:33:16;;;;;;;;;;;;;;;26.22;21.54;100190.19;5017954;28;798;-37
2022/04/18 04:35:41;;;;;;;;;;;;;;;27.21;20.25;100186.97;5018275;28;798;-36
2022/04/18 04:38:06;;;;;;;;;;;;;;;27.54;20.12;100189.03;5017745;28;967;-38
2022/04/18 04:40:32;;;;;;;;;;;;;;;28.03;20.12;100193.66;5017615;28;1414;-36
2022/04/18 04:42:57;;;;;;;;;;;;;;;28.22;19.89;100203.69;5035487;28;1975;-37
2022/04/18 04:45:23;;;;;;;;;;;;;;;28.37;19.94;100202.69;5031655;28;838;-36
2022/04/18 04:47:48;;;;;;;;;;;;;;;28.64;19.84;100194.63;5017798;28;990;-38
2022/04/18 04:50:13;;;;;;;;;;;;;;;28.91;20.06;100182.97;5025167;28;930;-38
2022/04/18 04:52:38;;;;;;;;;;;;;;;28.69;20.54;100197.56;5024974;28;1226;-37
2022/04/18 04:55:06;;;;;;;;;;;;;;;28.11;21.14;100172.66;5032950;28;861;-38
2022/04/18 04:57:32;;;;;;;;;;;;;;;28.40;21.32;100180.66;5027071;28;924;-38
2022/04/18 04:59:57;;;;;;;;;;;;;;;29.01;20.63;100185.28;5018227;28;894;-37
2022/04/18 05:02:23;;;;;;;;;;;;;;;28.48;21.22;100182.31;5021357;28;1957;-38
2022/04/18 05:04:48;;;;;;;;;;;;;;;28.05;21.45;100183.44;5016951;28;1419;-35
2022/04/18 05:07:13;;;;;;;;;;;;;;;28.05;21.63;100186.16;5019967;28;874;-37
2022/04/18 05:09:39;;;;;;;;;;;;;;;27.92;22.01;100189.63;5016902;28;921;-36
2022/04/18 05:12:04;;;;;;;;;;;;;;;27.70;22.59;100197.84;5016527;28;857;-35
2022/04/18 05:14:29;;;;;;;;;;;;;;;27.68;22.57;100206.16;5016999;28;850;-37
2022/04/18 05:16:55;;;;;;;;;;;;;;;27.68;22.54;100216.97;5019731;28;808;-38
2022/04/18 05:19:20;;;;;;;;;;;;;;;27.55;23.00;100219.56;5022734;28;1077;-37
2022/04/18 05:21:45;;;;;;;;;;;;;;;27.51;23.22;100222.69;5017059;28;1945;-39
2022/04/18 05:24:11;;;;;;;;;;;;;;;27.43;23.34;100219.28;5016567;28;1080;-40
2022/04/18 05:26:36;;;;;;;;;;;;;;;27.80;23.02;100217.25;5029764;28;990;-38
2022/04/18 05:29:01;;;;;;;;;;;;;;;27.73;23.32;100227.19;5016986;28;850;-40
2022/04/18 05:31:26;;;;;;;;;;;;;;;27.95;23.27;100229.78;5026887;28;965;-37
2022/04/18 05:33:52;;;;;;;;;;;;;;;28.35;22.92;100227.25;5018037;28;951;-38
2022/04/18 05:36:17;;;;;;;;;;;;;;;28.46;22.70;100239.34;5016761;28;814;-32
2022/04/18 05:38:42;;;;;;;;;;;;;;;28.66;22.66;100235.00;5016532;28;1116;-34
2022/04/18 05:41:08;;;;;;;;;;;;;;;28.99;22.12;100245.06;5016610;28;1914;-38
2022/04/18 05:43:33;;;;;;;;;;;;;;;28.57;22.59;100239.78;5016745;28;719;-36
2022/04/18 05:45:58;;;;;;;;;;;;;;;28.46;22.63;100246.63;5026806;28;822;-35
2022/04/18 05:48:24;;;;;;;;;;;;;;;28.94;22.44;100253.78;5016425;28;940;-38
2022/04/18 05:50:49;;;;;;;;;;;;;;;29.43;22.00;100253.56;5016579;28;897;-37
2022/04/18 05:53:14;;;;;;;;;;;;;;;28.53;22.80;100258.28;5016040;28;794;-36
2022/04/18 05:55:40;;;;;;;;;;;;;;;28.36;22.95;100255.97;5016463;28;897;-35
2022/04/18 05:58:05;;;;;;;;;;;;;;;28.71;22.95;100260.41;5017217;28;802;-37
2022/04/18 06:00:32;;;;;;;;;;;;;;;28.74;22.91;100261.88;5020196;28;938;-37
2022/04/18 06:02:57;;;;;;;;;;;;;;;28.95;22.57;100260.00;5016672;28;1960;-36
2022/04/18 06:05:23;;;;;;;;;;;;;;;29.35;22.17;100264.63;5016638;28;835;-39
2022/04/18 06:07:48;;;;;;;;;;;;;;;28.57;22.54;100269.53;5016124;28;822;-36
2022/04/18 06:10:14;;;;;;;;;;;;;;;28.20;22.83;100267.09;5019984;28;843;-38
2022/04/18 06:12:39;;;;;;;;;;;;;;;28.66;22.76;100281.03;5016304;28;830;-35
2022/04/18 06:15:05;;;;;;;;;;;;;;;28.58;22.89;100280.16;5018201;28;920;-39
2022/04/18 06:17:30;;;;;;;;;;;;;;;28.82;23.06;100286.03;5016906;28;773;-37
2022/04/18 06:19:55;;;;;;;;;;;;;;;29.18;22.70;100280.44;5016303;28;845;-40
2022/04/18 06:22:20;;;;;;;;;;;;;;;29.19;22.59;100288.41;5019885;28;1956;-37
2022/04/18 06:24:46;;;;;;;;;;;;;;;28.70;22.74;100280.41;5032963;28;986;-38
2022/04/18 06:27:11;;;;;;;;;;;;;;;28.48;22.97;100280.56;5031067;28;1294;-36
2022/04/18 06:29:37;;;;;;;;;;;;;;;29.15;22.81;100278.16;5021284;28;1294;-39
2022/04/18 06:32:02;;;;;;;;;;;;;;;29.37;22.65;100286.91;5020536;28;1143;-35
2022/04/18 06:34:30;;;;;;;;;;;;;;;29.08;22.66;100281.72;5019788;28;767;-39
2022/04/18 06:36:55;;;;;;;;;;;;;;;28.87;23.01;100284.56;5022708;28;923;-38
2022/04/18 06:39:21;;;;;;;;;;;;;;;29.07;23.05;100290.06;5019776;28;1040;-39
2022/04/18 06:41:46;;;;;;;;;;;;;;;28.96;23.29;100292.28;5019358;28;1899;-35
2022/04/18 06:44:11;;;;;;;;;;;;;;;29.16;23.05;100291.50;5019722;28;853;-32
2022/04/18 06:46:37;;;;;;;;;;;;;;;29.54;22.42;100292.75;5025222;28;871;-34
2022/04/18 06:49:02;;;;;;;;;;;;;;;29.05;22.62;100295.66;5024799;28;791;-38
2022/04/18 06:51:27;;;;;;;;;;;;;;;28.81;22.84;100297.91;5019966;28;731;-38
2022/04/18 06:53:53;;;;;;;;;;;;;;;28.64;23.79;100293.91;5019433;28;818;-37
2022/04/18 06:59:01;;;;;;;;;;;;;;;28.91;23.51;100296.69;5019352;28;651;-38
2022/04/18 07:01:27;;;;;;;;;;;;;;;29.32;23.03;100295.69;5024725;28;1902;-39
2022/04/18 07:03:52;;;;;;;;;;;;;;;29.02;22.62;100292.53;5019659;28;826;-37
2022/04/18 07:06:17;;;;;;;;;;;;;;;28.55;23.17;100293.25;5019355;28;818;-36
2022/04/18 07:08:46;;;;;;;;;;;;;;;28.84;23.39;100293.97;5018951;28;869;-38
2022/04/18 07:11:11;;;;;;;;;;;;;;;29.20;22.81;100294.63;5023147;28;1219;-40
2022/04/18 07:13:36;;;;;;;;;;;;;;;29.46;22.58;100291.06;5021094;28;1196;-38
2022/04/18 07:16:02;;;;;;;;;;;;;;;29.47;22.04;100297.34;5028680;28;1017;-37
2022/04/18 07:18:27;;;;;;;;;;;;;;;28.62;23.01;100286.00;5019433;28;770;-37
2022/04/18 07:20:53;;;;;;;;;;;;;;;28.41;23.40;100287.81;5036578;28;1132;-37
2022/04/18 07:23:18;;;;;;;;;;;;;;;28.22;23.94;100282.13;5033156;28;1946;-36
2022/04/18 07:25:43;;;;;;;;;;;;;;;28.75;23.58;100293.31;5038001;28;1049;-39
2022/04/18 07:28:09;;;;;;;;;;;;;;;29.01;23.20;100288.19;5020591;28;766;-39
2022/04/18 07:30:34;;;;;;;;;;;;;;;29.29;23.10;100290.69;5018169;28;935;-39
2022/04/18 07:32:59;;;;;;;;;;;;;;;29.58;22.55;100293.13;5018940;28;743;-37
2022/04/18 07:35:25;;;;;;;;;;;;;;;28.75;23.13;100289.75;5018980;28;875;-39
2022/04/18 07:40:34;;;;;;;;;;;;;;;28.97;23.58;100279.63;5023534;28;718;-39
2022/04/18 07:42:59;;;;;;;;;;;;;;;28.96;23.31;100277.94;5018194;28;1914;-38
2022/04/18 07:45:24;;;;;;;;;;;;;;;29.34;22.93;100276.50;5037368;28;894;-39
2022/04/18 07:47:53;;;;;;;;;;;;;;;29.29;22.64;100273.59;5018983;28;921;-39
2022/04/18 07:50:18;;;;;;;;;;;;;;;28.63;23.70;100273.31;5018719;28;810;-35
2022/04/18 07:52:44;;;;;;;;;;;;;;;28.87;23.75;100274.59;5019016;28;842;-37
2022/04/18 07:55:09;;;;;;;;;;;;;;;29.14;23.57;100261.09;5018502;28;802;-36
2022/04/18 07:57:37;;;;;;;;;;;;;;;29.39;23.11;100275.88;5018046;28;778;-42
2022/04/18 08:00:03;;;;;;;;;;;;;;;29.57;22.77;100264.38;5020110;28;963;-38
2022/04/18 08:02:28;;;;;;;;;;;;;;;29.05;23.13;100263.19;5019430;28;1898;-38
2022/04/18 08:04:53;;;;;;;;;;;;;;;28.85;23.16;100277.50;5023994;28;1005;-37
2022/04/18 08:07:19;;;;;;;;;;;;;;;28.90;23.77;100285.00;5032643;28;1068;-37
2022/04/18 08:09:44;;;;;;;;;;;;;;;29.10;23.56;100265.25;5036792;28;853;-35
2022/04/18 08:12:12;;;;;;;;;;;;;;;29.25;23.26;100275.03;5037182;28;789;-37
2022/04/18 08:14:37;;;;;;;;;;;;;;;29.63;22.57;100268.16;5037200;28;762;-34
2022/04/18 08:17:02;;;;;;;;;;;;;;;28.80;22.84;100284.56;5018874;28;853;-36
2022/04/18 08:19:28;;;;;;;;;;;;;;;28.78;23.20;100275.84;5017787;28;849;-38
2022/04/18 08:21:53;;;;;;;;;;;;;;;28.78;23.46;100276.66;5017963;28;1953;-38
2022/04/18 08:24:19;;;;;;;;;;;;;;;28.81;23.58;100284.34;5018123;28;814;-34
2022/04/18 08:26:45;;;;;;;;;;;;;;;29.00;23.43;100278.38;5019148;28;1105;-33
2022/04/18 08:29:11;;;;;;;;;;;;;;;29.34;22.93;100284.63;5017677;28;862;-38
2022/04/18 08:31:36;;;;;;;;;;;;;;;29.45;22.56;100288.56;5023380;28;878;-38
2022/04/18 08:34:02;;;;;;;;;;;;;;;29.27;22.60;100283.78;5017880;28;782;-39
2022/04/18 08:36:27;;;;;;;;;;;;;;;28.85;23.07;100279.38;5017654;28;1024;-38
2022/04/18 08:38:52;;;;;;;;;;;;;;;28.66;23.14;100289.13;5017419;28;1271;-39
2022/04/18 08:41:20;;;;;;;;;;;;;;;29.01;22.90;100286.28;5017207;28;1902;-39
2022/04/18 08:43:46;;;;;;;;;;;;;;;29.53;22.26;100298.38;5030466;28;774;-42
2022/04/18 08:46:11;;;;;;;;;;;;;;;29.81;21.95;100298.13;5022128;28;897;-37
2022/04/18 08:54:04;;;;;;;;;;;;;;;28.62;23.33;100299.53;5036079;28;691;-39
2022/04/18 08:56:29;;;;;;;;;;;;;;;28.89;23.03;100318.53;5031550;28;1389;-39
2022/04/18 08:58:54;;;;;;;;;;;;;;;28.96;22.68;100313.13;5025943;28;1037;-38
2022/04/18 09:01:20;;;;;;;;;;;;;;;29.15;21.17;100303.38;5027646;28;1890;-39
2022/04/18 09:03:45;;;;;;;;;;;;;;;29.39;20.42;100317.34;5015929;28;955;-39
2022/04/18 09:06:11;;;;;;;;;;;;;;;29.18;19.92;100308.38;5017036;28;811;-39
2022/04/18 09:08:46;;;;;;;;;;;;;;;29.27;19.09;100319.00;5017355;28;920;-40
2022/04/18 09:11:24;;;;;;;;;;;;;;;27.76;18.84;100310.56;5020869;28;865;-40
2022/04/18 09:13:49;;;;;;;;;;;;;;;27.28;19.33;100312.06;5016009;28;806;-40
2022/04/18 09:16:16;;;;;;;;;;;;;;;28.58;19.22;100315.34;5027476;28;897;-41
2022/04/18 09:18:42;;;;;;;;;;;;;;;28.52;18.97;100318.88;5035502;28;829;-40
2022/04/18 09:21:07;;;;;;;;;;;;;;;27.65;20.74;100316.47;5035613;28;1961;-41
2022/04/18 09:23:33;;;;;;;;;;;;;;;27.18;25.62;100312.38;5027906;28;1076;-39
2022/04/18 09:26:02;;;;;;;;;;;;;;;27.05;27.76;100318.50;5032351;28;1048;-38
2022/04/18 09:28:29;;;;;;;;;;;;;;;26.96;28.54;100322.34;5015905;28;834;-39
2022/04/18 09:30:58;;;;;;;;;;;;;;;26.87;27.96;100332.41;5022721;28;1029;-38
2022/04/18 09:33:23;;;;;;;;;;;;;;;26.82;27.86;100322.19;5016643;28;977;-38
2022/04/18 09:35:48;;;;;;;;;;;;;;;26.66;26.86;100334.03;5022996;28;785;-39
2022/04/18 09:38:16;;;;;;;;;;;;;;;26.54;24.82;100341.81;5024176;28;1204;-38
2022/04/18 09:40:41;;;;;;;;;;;;;;;27.52;24.42;100339.69;5035587;28;719;-39
2022/04/18 09:43:06;;;;;;;;;;;;;;;27.66;23.76;100334.38;5035682;28;1914;-38
2022/04/18 09:45:31;;;;;;;;;;;;;;;28.15;22.60;100340.72;5034694;28;891;-38
2022/04/18 09:47:57;;;;;;;;;;;;;;;28.55;21.98;100341.97;5017540;28;801;-39
2022/04/18 09:53:08;;;;;;;;;;;;;;;28.51;20.66;100343.41;5016459;28;751;-38
2022/04/18 09:55:33;;;;;;;;;;;;;;;28.73;20.22;100344.09;5016516;28;872;-40
2022/04/18 09:58:02;;;;;;;;;;;;;;;28.88;20.13;100346.63;5024442;28;990;-39
2022/04/18 10:00:27;;;;;;;;;;;;;;;28.19;20.29;100346.56;5033352;28;846;-42
2022/04/18 10:02:52;;;;;;;;;;;;;;;28.16;20.80;100352.41;5016838;28;1894;-39
2022/04/18 10:05:18;;;;;;;;;;;;;;;28.94;20.64;100353.13;5034468;28;1054;-38
2022/04/18 10:07:43;;;;;;;;;;;;;;;28.86;20.71;100351.44;5032194;28;773;-40
2022/04/18 10:10:08;;;;;;;;;;;;;;;28.85;20.97;100360.59;5033390;28;1057;-37
2022/04/18 10:12:34;;;;;;;;;;;;;;;29.00;20.97;100360.44;5038832;28;758;-39
2022/04/18 10:14:59;;;;;;;;;;;;;;;29.23;20.88;100364.63;5031447;28;1165;-39
2022/04/18 10:17:24;;;;;;;;;;;;;;;28.52;22.03;100372.97;5019834;28;873;-38
2022/04/18 10:19:53;;;;;;;;;;;;;;;28.24;22.24;100373.88;5020290;28;814;-39
2022/04/18 10:22:18;;;;;;;;;;;;;;;28.68;22.00;100379.06;5023310;28;1960;-38
2022/04/18 10:24:46;;;;;;;;;;;;;;;29.21;21.36;100372.16;5038513;28;849;-38
2022/04/18 10:27:30;;;;;;;;;;;;;;;29.52;21.11;100372.56;5025700;28;878;-39
2022/04/18 10:29:57;;;;;;;;;;;;;;;28.91;21.58;100377.91;5032447;28;846;-38
2022/04/18 10:32:24;;;;;;;;;;;;;;;28.24;22.53;100376.56;5024040;28;837;-40
2022/04/18 10:34:52;;;;;;;;;;;;;;;29.02;21.90;100387.31;5018660;28;971;-38
2022/04/18 10:37:21;;;;;;;;;;;;;;;29.34;21.49;100390.28;5019201;28;842;-40
2022/04/18 10:39:48;;;;;;;;;;;;;;;29.58;21.45;100390.69;5024760;28;984;-38
2022/04/18 10:42:18;;;;;;;;;;;;;;;28.73;22.24;100387.41;5018481;28;1898;-38
2022/04/18 10:44:43;;;;;;;;;;;;;;;28.53;22.95;100387.34;5038031;28;821;-39
2022/04/18 10:47:10;;;;;;;;;;;;;;;29.04;22.42;100399.63;5024140;28;1011;-42
2022/04/18 10:49:35;;;;;;;;;;;;;;;29.33;22.12;100400.28;5020026;28;811;-41
2022/04/18 10:52:08;;;;;;;;;;;;;;;29.60;21.62;100410.34;5021862;28;839;-38
2022/04/18 10:54:33;;;;;;;;;;;;;;;28.90;22.02;100404.13;5019355;28;850;-39
2022/04/18 10:57:02;;;;;;;;;;;;;;;28.66;22.52;100402.81;5019071;28;949;-38
2022/04/18 10:59:28;;;;;;;;;;;;;;;28.65;22.64;100396.53;5019508;28;765;-40
2022/04/18 11:01:54;;;;;;;;;;;;;;;28.84;22.84;100404.94;5021036;28;1965;-37
2022/04/18 11:04:33;;;;;;;;;;;;;;;28.69;23.39;100394.28;5024575;28;803;-39
2022/04/18 11:06:59;;;;;;;;;;;;;;;28.95;23.15;100406.22;5019562;28;850;-38
2022/04/18 11:09:24;;;;;;;;;;;;;;;29.52;22.25;100405.94;5018871;28;790;-35
2022/04/18 11:11:50;;;;;;;;;;;;;;;28.89;22.28;100405.19;5019477;28;795;-39
2022/04/18 11:14:16;;;;;;;;;;;;;;;28.88;22.83;100408.09;5018858;28;982;-40
2022/04/18 11:16:41;;;;;;;;;;;;;;;29.31;22.43;100410.50;5032056;28;876;-42
2022/04/18 11:19:07;;;;;;;;;;;;;;;29.62;21.99;100408.25;5018904;28;834;-37
2022/04/18 11:21:51;;;;;;;;;;;;;;;28.83;22.49;100414.94;5018825;28;1963;-40
2022/04/18 11:24:37;;;;;;;;;;;;;;;28.80;23.00;100415.34;5019126;28;844;-40
2022/04/18 11:27:06;;;;;;;;;;;;;;;28.56;23.31;100412.13;5019099;28;1112;-38
2022/04/18 11:29:31;;;;;;;;;;;;;;;28.53;22.72;100409.81;5022893;28;802;-38
2022/04/18 11:31:57;;;;;;;;;;;;;;;28.21;23.50;100412.94;5029727;28;963;-38
2022/04/18 11:34:25;;;;;;;;;;;;;;;28.15;23.61;100407.50;5036570;28;1112;-40
2022/04/18 11:36:53;;;;;;;;;;;;;;;28.21;23.89;100404.84;5037549;28;1096;-39
2022/04/18 11:39:18;;;;;;;;;;;;;;;28.31;23.75;100404.47;5037209;28;1018;-42
2022/04/18 11:41:43;;;;;;;;;;;;;;;28.54;23.66;100410.66;5035841;28;1965;-39
2022/04/18 11:44:09;;;;;;;;;;;;;;;28.89;23.23;100407.03;5032714;28;1112;-38
2022/04/18 11:46:34;;;;;;;;;;;;;;;29.18;22.80;100416.72;5034654;28;1239;-41
2022/04/18 11:48:59;;;;;;;;;;;;;;;29.06;22.51;100412.97;5035647;28;1319;-40
2022/04/18 11:51:39;;;;;;;;;;;;;;;28.89;22.75;100415.16;5036797;28;1223;-40
2022/04/18 11:54:04;;;;;;;;;;;;;;;28.78;22.78;100413.88;5037440;28;1060;-39
2022/04/18 11:56:29;;;;;;;;;;;;;;;29.43;22.51;100408.00;5029242;28;1123;-38
2022/04/18 11:58:54;;;;;;;;;;;;;;;29.52;22.60;100410.50;5033848;28;1128;-41
2022/04/18 12:06:49;;;;;;;;;;;;;;;28.95;22.98;100408.94;5036003;28;643;-38
2022/04/18 12:09:18;;;;;;;;;;;;;;;29.18;23.13;100408.59;5021907;28;904;-39
2022/04/18 12:11:43;;;;;;;;;;;;;;;29.16;23.34;100415.28;5018223;28;1493;-37
2022/04/18 12:14:09;;;;;;;;;;;;;;;29.46;22.68;100417.59;5018208;28;858;-38
2022/04/18 12:16:37;;;;;;;;;;;;;;;29.84;22.14;100423.47;5024117;28;1044;-39
2022/04/18 12:19:03;;;;;;;;;;;;;;;28.83;23.12;100419.50;5017796;28;894;-37
2022/04/18 12:21:28;;;;;;;;;;;;;;;28.54;23.64;100407.94;5020169;28;1890;-39
2022/04/18 12:23:55;;;;;;;;;;;;;;;28.58;23.76;100412.75;5017643;28;861;-38
2022/04/18 12:26:22;;;;;;;;;;;;;;;29.02;23.53;100401.69;5023021;28;974;-36
2022/04/18 12:28:47;;;;;;;;;;;;;;;29.22;23.21;100414.44;5016082;28;1082;-41
2022/04/18 12:31:13;;;;;;;;;;;;;;;29.57;22.81;100430.53;5020623;28;786;-42
2022/04/18 12:33:48;;;;;;;;;;;;;;;29.04;22.79;100421.28;5023167;28;750;-39
2022/04/18 12:36:33;;;;;;;;;;;;;;;28.83;23.18;100423.06;5017883;28;758;-38
2022/04/18 12:38:59;;;;;;;;;;;;;;;28.73;23.79;100428.00;5017917;28;1078;-36
2022/04/18 12:41:27;;;;;;;;;;;;;;;29.15;23.69;100419.84;5017242;28;1962;-37
2022/04/18 12:43:53;;;;;;;;;;;;;;;29.21;23.47;100426.34;5017525;28;842;-40
2022/04/18 12:46:22;;;;;;;;;;;;;;;29.56;22.90;100419.91;5020524;28;882;-38
2022/04/18 12:48:48;;;;;;;;;;;;;;;29.03;22.91;100426.91;5017437;28;898;-41
2022/04/18 12:51:14;;;;;;;;;;;;;;;28.79;23.31;100419.09;5017344;28;870;-40
2022/04/18 12:53:48;;;;;;;;;;;;;;;28.68;24.09;100420.50;5016284;28;775;-40
2022/04/18 12:56:23;;;;;;;;;;;;;;;29.26;23.59;100415.69;5017165;28;1242;-39
2022/04/18 12:58:50;;;;;;;;;;;;;;;29.45;23.09;100418.63;5020229;28;826;-40
2022/04/18 13:01:22;;;;;;;;;;;;;;;29.66;22.47;100425.75;5024243;28;1961;-39
2022/04/18 13:03:47;;;;;;;;;;;;;;;28.69;23.65;100424.06;5016878;28;794;-41
2022/04/18 13:06:13;;;;;;;;;;;;;;;28.46;24.01;100425.19;5016954;28;889;-41
2022/04/18 13:08:39;;;;;;;;;;;;;;;28.34;24.12;100420.31;5017522;28;866;-39
2022/04/18 13:11:05;;;;;;;;;;;;;;;28.85;24.15;100421.00;5016635;28;821;-39
2022/04/18 13:13:30;;;;;;;;;;;;;;;29.04;23.87;100415.88;5032980;28;1117;-40